Map

Track Data

SID SEASON NUMBER BASIN SUBBASIN NAME ISO_TIME NATURE LAT LON WMO_WIND WMO_PRES WMO_AGENCY TRACK_TYPE DIST2LAND LANDFALL IFLAG USA_AGENCY USA_ATCF_ID USA_LAT USA_LON USA_RECORD USA_STATUS USA_WIND USA_PRES USA_SSHS USA_R34_NE USA_R34_SE USA_R34_SW USA_R34_NW USA_R50_NE USA_R50_SE USA_R50_SW USA_R50_NW USA_R64_NE USA_R64_SE USA_R64_SW USA_R64_NW USA_POCI USA_ROCI USA_RMW USA_EYE TOKYO_LAT TOKYO_LON TOKYO_GRADE TOKYO_WIND TOKYO_PRES TOKYO_R50_DIR TOKYO_R50_LONG TOKYO_R50_SHORT TOKYO_R30_DIR TOKYO_R30_LONG TOKYO_R30_SHORT TOKYO_LAND CMA_LAT CMA_LON CMA_CAT CMA_WIND CMA_PRES HKO_LAT HKO_LON HKO_CAT HKO_WIND HKO_PRES NEWDELHI_LAT NEWDELHI_LON NEWDELHI_GRADE NEWDELHI_WIND NEWDELHI_PRES NEWDELHI_CI NEWDELHI_DP NEWDELHI_POCI REUNION_LAT REUNION_LON REUNION_TYPE REUNION_WIND REUNION_PRES REUNION_TNUM REUNION_CI REUNION_RMW REUNION_R34_NE REUNION_R34_SE REUNION_R34_SW REUNION_R34_NW REUNION_R50_NE REUNION_R50_SE REUNION_R50_SW REUNION_R50_NW REUNION_R64_NE REUNION_R64_SE REUNION_R64_SW REUNION_R64_NW BOM_LAT BOM_LON BOM_TYPE BOM_WIND BOM_PRES BOM_TNUM BOM_CI BOM_RMW BOM_R34_NE BOM_R34_SE BOM_R34_SW BOM_R34_NW BOM_R50_NE BOM_R50_SE BOM_R50_SW BOM_R50_NW BOM_R64_NE BOM_R64_SE BOM_R64_SW BOM_R64_NW BOM_ROCI BOM_POCI BOM_EYE BOM_POS_METHOD BOM_PRES_METHOD NADI_LAT NADI_LON NADI_CAT NADI_WIND NADI_PRES WELLINGTON_LAT WELLINGTON_LON WELLINGTON_WIND WELLINGTON_PRES DS824_LAT DS824_LON DS824_STAGE DS824_WIND DS824_PRES TD9636_LAT TD9636_LON TD9636_STAGE TD9636_WIND TD9636_PRES TD9635_LAT TD9635_LON TD9635_WIND TD9635_PRES TD9635_ROCI NEUMANN_LAT NEUMANN_LON NEUMANN_CLASS NEUMANN_WIND NEUMANN_PRES MLC_LAT MLC_LON MLC_CLASS MLC_WIND MLC_PRES USA_GUST BOM_GUST BOM_GUST_PER REUNION_GUST REUNION_GUST_PER USA_SEAHGT USA_SEARAD_NE USA_SEARAD_SE USA_SEARAD_SW USA_SEARAD_NW STORM_SPEED STORM_DIR
1953313N06155 1953 75 WP MM CORA 1953-11-08 18:00:00 TS 6.30000 154.700 main 1093 1077 O________O_O__ jtwc_wp WP211953 6.30000 154.700 25 -1 6.30000 154.700 TC 25 6.30000 154.700 25 1008 120 10 276
1953313N06155 1953 75 WP MM CORA 1953-11-08 21:00:00 TS 6.35013 154.225 main 1083 1069 P________P_P__ WP211953 6.35013 154.225 25 -1 6.35013 154.225 TC 25 6.35013 154.225 25 1008 120 9 276
1953313N06155 1953 75 WP MM CORA 1953-11-09 00:00:00 TS 6.40000 153.800 main 1069 1059 O________OOO__ jtwc_wp WP211953 6.40000 153.800 25 -1 6.40000 153.800 TC 25 6.40000 153.800 1 25 6.40000 153.800 25 1008 120 8 277
1953313N06155 1953 75 WP MM CORA 1953-11-09 03:00:00 TS 6.45040 153.443 main 1067 1059 P________PPP__ WP211953 6.44991 153.450 25 -1 6.44991 153.450 TC 25 6.45338 153.402 1 25 6.44991 153.450 25 1007 120 7 278
1953313N06155 1953 75 WP MM CORA 1953-11-09 06:00:00 TS 6.50106 153.081 main 1059 1050 O________OPO__ jtwc_wp WP211953 6.50000 153.100 25 -1 6.50000 153.100 TC 25 6.50528 153.003 1 25 6.50000 153.100 25 1007 120 8 277
1953313N06155 1953 75 WP MM CORA 1953-11-09 09:00:00 TS 6.55113 152.649 main 1059 1052 P________PPP__ WP211953 6.55000 152.665 25 -1 6.55000 152.665 TC 25 6.55455 152.602 1 25 6.55000 152.665 25 1007 120 9 276
1953313N06155 1953 75 WP MM CORA 1953-11-09 12:00:00 TS 6.60000 152.200 main 1052 1046 O________OOO__ jtwc_wp WP211953 6.60000 152.200 25 -1 6.60000 152.200 TC 25 6.60000 152.200 1 25 6.60000 152.200 25 1007 120 9 276
1953313N06155 1953 75 WP MM CORA 1953-11-09 15:00:00 TS 6.64791 151.755 main 1046 1046 P________PPP__ WP211953 6.64998 151.742 25 -1 6.64998 151.742 TC 25 6.64172 151.794 1 25 6.64998 151.742 25 1006 120 9 276
1953313N06155 1953 75 WP MM CORA 1953-11-09 18:00:00 TS 6.69619 151.320 main 1054 1053 O________OPO__ jtwc_wp WP211953 6.70000 151.300 25 -1 6.70000 151.300 TC 25 6.68477 151.380 1 26 6.70000 151.300 25 1006 120 8 276
1953313N06155 1953 75 WP MM CORA 1953-11-09 21:00:00 TS 6.74067 150.918 main 1053 1053 P________PPP__ WP211953 6.74241 150.907 27 -1 6.74241 150.907 TC 27 6.73544 150.950 1 27 6.74241 150.907 26 1006 120 8 277
1953313N06155 1953 75 WP MM CORA 1953-11-10 00:00:00 TS 6.80000 150.500 main 1055 1044 O________OOO__ jtwc_wp WP211953 6.80000 150.500 30 -1 6.80000 150.500 TC 30 6.80000 150.500 1 28 6.80000 150.500 28 1006 120 9 280
1953313N06155 1953 75 WP MM CORA 1953-11-10 03:00:00 TS 6.89073 150.021 main 1049 1040 P________PPP__ WP211953 6.89249 150.015 30 -1 6.89249 150.015 TC 30 6.88545 150.038 1 28 6.89249 150.015 29 1005 120 10 281
1953313N06155 1953 75 WP MM CORA 1953-11-10 06:00:00 TS 6.99618 149.513 main 1046 1041 O________OPO__ jtwc_wp WP211953 7.00000 149.500 30 -1 7.00000 149.500 TC 30 6.98472 149.552 1 29 7.00000 149.500 30 1005 120 10 282
1953313N06155 1953 75 WP MM CORA 1953-11-10 09:00:00 TS 7.10346 149.021 main 1046 1042 P________PPP__ WP211953 7.10739 149.015 30 -1 7.10739 149.015 TC 30 7.09164 149.041 1 29 7.10739 149.015 30 1005 120 10 281
1953313N06155 1953 75 WP MM CORA 1953-11-10 12:00:00 TS 7.20000 148.500 main 1049 1044 O________OOO__ jtwc_wp WP211953 7.20000 148.500 30 -1 7.20000 148.500 TC 30 7.20000 148.500 1 30 7.20000 148.500 30 1005 120 11 278
1953313N06155 1953 75 WP MM CORA 1953-11-10 15:00:00 TS 7.24970 147.922 main 1043 1042 P________PPP__ WP211953 7.24248 147.915 30 -1 7.24248 147.915 TC 30 7.27135 147.945 1 29 7.24248 147.915 30 1004 120 14 272
1953313N06155 1953 75 WP MM CORA 1953-11-10 18:00:00 TS 7.24937 147.058 1002 tokyo main 1042 1042 OOO______OPO__ jtwc_wp WP211953 7.30000 147.300 30 -1 6.80000 145.000 2 1002 0 0 0 6.70000 145.000 0 1004 7.30000 147.300 TC 30 7.34716 147.359 1 29 7.30000 147.300 30 1004 120 17 272
1953313N06155 1953 75 WP MM CORA 1953-11-10 21:00:00 TS 7.30385 146.227 main 1054 1054 PPP______PPP__ WP211953 7.41239 146.707 30 -1 6.85267 144.270 2 1003 0 0 6.81267 144.270 0 1004 7.41239 146.707 TC 30 7.44939 146.744 1 28 7.41239 146.707 29 1004 120 17 276
1953313N06155 1953 75 WP MM CORA 1953-11-11 00:00:00 TS 7.40909 145.391 1004 tokyo main 1072 1072 OOO______OOO__ jtwc_wp WP211953 7.60000 146.100 30 -1 6.90000 143.500 2 1004 0 0 0 6.90000 143.500 0 1004 7.60000 146.100 TC 30 7.60000 146.100 1 28 7.60000 146.100 28 1004 120 17 279
1953313N06155 1953 75 WP MM CORA 1953-11-11 03:00:00 TS 7.56529 144.530 main 1111 1111 PPP______PPP__ WP211953 7.88486 145.473 27 -1 6.94243 142.665 2 1004 0 0 6.94993 142.665 0 1004 7.88486 145.473 TC 27 7.84483 145.433 1 27 7.88486 145.473 26 1003 120 16 283
1953313N06155 1953 75 WP MM CORA 1953-11-11 06:00:00 TS 7.78912 143.790 1004 tokyo main 1152 1152 OOO______OPO__ jtwc_wp WP211953 8.20000 144.800 25 -1 7.00000 141.800 2 1004 0 0 0 7.00000 141.800 0 1004 8.20000 144.800 TC 25 8.13474 144.738 1 26 8.20000 144.800 25 1003 120 16 286
1953313N06155 1953 75 WP MM CORA 1953-11-11 09:00:00 TS 7.99323 143.017 main 1197 1186 PPP______PPP__ WP211953 8.45744 144.065 25 -1 7.07739 140.942 2 1004 0 0 7.07739 140.942 0 1004 8.45744 144.065 TC 25 8.43227 144.024 1 25 8.45744 144.065 25 1003 120 16 285
1953313N06155 1953 75 WP MM CORA 1953-11-11 12:00:00 TS 8.20000 142.233 1004 tokyo main 1184 1175 OOO______OOO__ jtwc_wp WP211953 8.70000 143.300 25 -1 7.20000 140.100 2 1004 0 0 0 7.20000 140.100 0 1004 8.70000 143.300 TC 25 8.70000 143.300 1 25 8.70000 143.300 25 1003 120 16 286
1953313N06155 1953 75 WP MM CORA 1953-11-11 15:00:00 TS 8.43216 141.441 main 1175 1175 PPP______PPP__ WP211953 8.97989 142.543 25 -1 7.37758 139.233 2 1004 0 0 7.37758 139.233 0 1004 8.97989 142.543 TC 25 8.89812 142.554 1 25 8.97989 142.543 25 1002 120 16 286
1953313N06155 1953 75 WP MM CORA 1953-11-11 18:00:00 TS 8.64334 140.701 1004 tokyo main 1176 1171 OOO______OPO__ jtwc_wp WP211953 9.20000 141.800 25 -1 7.60000 138.500 2 1004 0 0 0 7.60000 138.500 0 1004 9.20000 141.800 TC 25 9.06007 141.805 1 25 9.20000 141.800 25 1002 120 14 285
1953313N06155 1953 75 WP MM CORA 1953-11-11 21:00:00 TS 8.79100 140.063 main 1172 1157 PPP______PPP__ WP211953 9.27232 141.092 25 -1 7.87981 138.003 2 1004 0 0 7.85728 138.017 0 1004 9.27232 141.092 TC 25 9.19194 141.079 1 25 9.27232 141.092 25 1002 120 12 282
1953313N06155 1953 75 WP MM CORA 1953-11-12 00:00:00 TS 8.90000 139.500 1004 tokyo main 1157 1146 OOO______OOO__ jtwc_wp WP211953 9.30000 140.400 25 -1 8.10000 137.700 2 1004 0 0 0 8.10000 137.700 0 1004 9.30000 140.400 TC 25 9.30000 140.400 1 25 9.30000 140.400 25 1002 120 11 280
1953313N06155 1953 75 WP MM CORA 1953-11-12 03:00:00 TS 8.98839 138.950 main 1150 1136 PPP______PPP__ WP211953 9.40009 139.655 25 -1 8.09244 137.505 2 1004 0 0 8.24993 137.427 0 1004 9.40009 139.655 TC 25 9.38770 139.803 1 25 9.40009 139.655 25 1001 120 10 280
1953313N06155 1953 75 WP MM CORA 1953-11-12 06:00:00 TS 9.07609 138.476 1004 tokyo main 1144 1135 OOO______OPO__ jtwc_wp WP211953 9.50000 139.000 25 -1 8.10000 137.400 2 1004 0 0 0 8.40000 137.200 0 1004 9.50000 139.000 TC 25 9.45654 139.255 1 25 9.50000 139.000 25 1001 120 8 284
1953313N06155 1953 75 WP MM CORA 1953-11-12 09:00:00 TS 9.19353 138.120 main 1143 1140 PPP______PPP__ WP211953 9.54970 138.570 25 -1 8.35494 137.330 2 1004 0 0 8.63498 136.950 0 1004 9.54970 138.570 TC 25 9.52215 138.728 1 25 9.54970 138.570 25 1000 120 7 291
1953313N06155 1953 75 WP MM CORA 1953-11-12 12:00:00 TS 9.33333 137.783 1004 tokyo main 1146 1144 OOO______OOO__ jtwc_wp WP211953 9.60000 138.200 25 -1 8.70000 137.200 2 1004 0 0 0 8.90000 136.700 1 29 1004 9.60000 138.200 TC 25 9.60000 138.200 1 25 9.60000 138.200 25 1000 120 8 291
1953313N06155 1953 75 WP MM CORA 1953-11-12 15:00:00 TS 9.48253 137.357 main 1160 1153 PPP______PPP__ WP211953 9.68488 137.737 27 -1 9.00005 136.888 2 1003 0 0 9.14998 136.450 1 33 1003 9.68488 137.737 TC 27 9.69050 137.592 1 27 9.68488 137.737 27 999 120 9 290
1953313N06155 1953 75 WP MM CORA 1953-11-12 18:00:00 TS 9.64964 136.880 1002 tokyo main 1153 1103 OOO______OPO__ jtwc_wp WP211953 9.80000 137.200 30 -1 9.30000 136.500 2 1002 0 0 0 9.40000 136.200 2 38 1002 9.80000 137.200 TC 30 9.79784 136.982 1 30 9.80000 137.200 30 999 120 11 289
1953313N06155 1953 75 WP MM CORA 1953-11-12 21:00:00 TS 9.83115 136.343 main 1092 1054 PPP______PPP__ WP211953 9.93524 136.520 32 -1 9.59999 136.142 2 1001 0 0 9.64998 135.950 2 38 1001 9.93524 136.520 TC 32 9.93120 136.407 1 32 9.93524 136.520 32 998 120 11 291
1953313N06155 1953 75 WP MM CORA 1953-11-13 00:00:00 TS 10.0333 135.850 1000 tokyo main 1054 1017 OOO______OOO__ jtwc_wp WP211953 10.1000 135.900 35 0 9.90000 135.800 2 1000 0 0 0 9.90000 135.700 2 38 1000 10.1000 135.900 TC 35 10.1000 135.900 2 35 10.1000 135.900 35 998 120 9 297
1953313N06155 1953 75 WP MM CORA 1953-11-13 03:00:00 TS 10.2499 135.520 main 1017 1002 PPP______PPP__ WP211953 10.2772 135.555 35 0 10.2074 135.492 2 998 0 0 10.1425 135.457 2 38 998 10.2772 135.555 TC 35 10.3175 135.507 2 35 10.2772 135.555 35 997 120 8 308
1953313N06155 1953 75 WP MM CORA 1953-11-13 06:00:00 TS 10.4949 135.247 996 tokyo main 994 969 OOO______OPO__ jtwc_wp WP211953 10.5000 135.300 35 0 10.5000 135.200 2 996 0 0 0 10.4000 135.200 2 38 996 10.5000 135.300 TC 35 10.5692 135.182 2 35 10.5000 135.300 35 997 120 8 312
1953313N06155 1953 75 WP MM CORA 1953-11-13 09:00:00 TS 10.7798 134.924 main 969 942 PPP______PPP__ WP211953 10.8000 134.943 35 0 10.7499 134.907 2 996 0 0 10.6925 134.915 2 43 995 10.8000 134.943 TC 35 10.8364 134.891 2 35 10.8000 134.943 35 996 150 9 312
1953313N06155 1953 75 WP MM CORA 1953-11-13 12:00:00 TS 11.0667 134.600 996 tokyo main 944 917 OOO______OOO__ jtwc_wp WP211953 11.1000 134.600 35 0 11.0000 134.600 9 996 0 0 0 11.0000 134.600 3 48 995 11.1000 134.600 TC 35 11.1000 134.600 2 35 11.1000 134.600 35 996 180 8 312
1953313N06155 1953 75 WP MM CORA 1953-11-13 15:00:00 TS 11.3188 134.314 main 917 891 PPP______PPP__ WP211953 11.3073 134.365 35 0 11.3075 134.258 9 995 0 0 11.3150 134.258 3 48 994 11.3073 134.365 TC 35 11.3685 134.274 2 35 11.3073 134.365 35 995 180 8 310
1953313N06155 1953 75 WP MM CORA 1953-11-13 18:00:00 TS 11.5541 134.006 995 tokyo main 894 865 OOO______OPO__ jtwc_wp WP211953 11.5000 134.100 35 0 11.6000 133.900 9 995 0 0 0 11.6000 133.900 3 48 994 11.5000 134.100 TC 35 11.6246 133.938 2 36 11.5000 134.100 35 995 180 8 307
1953313N06155 1953 75 WP MM CORA 1953-11-13 21:00:00 TS 11.8109 133.637 main 855 814 PPP______PPP__ WP211953 11.7799 133.703 37 0 11.8449 133.565 9 995 0 0 11.8374 133.565 3 48 994 11.7799 133.703 TC 37 11.8435 133.583 2 37 11.7799 133.703 36 994 210 9 299
1953313N06155 1953 75 WP MM CORA 1953-11-14 00:00:00 TS 12.0000 133.200 995 tokyo main 814 760 OOO______OOO__ jtwc_wp WP211953 12.0000 133.200 40 0 12.0000 133.200 9 995 0 0 0 12.0000 133.200 3 48 994 12.0000 133.200 TC 40 12.0000 133.200 2 38 12.0000 133.200 38 994 240 10 284
1953313N06155 1953 75 WP MM CORA 1953-11-14 03:00:00 TS 12.0446 132.673 main 760 706 PPP______PPP__ WP211953 12.0377 132.577 40 0 12.0300 132.765 9 995 0 0 12.0800 132.765 3 48 992 12.0377 132.577 TC 40 12.0444 132.778 2 39 12.0377 132.577 39 992 240 10 271
1953313N06155 1953 75 WP MM CORA 1953-11-14 06:00:00 TS 12.0217 132.155 995 tokyo main 706 663 OOO______OPO__ jtwc_wp WP211953 12.0000 132.000 40 0 12.0000 132.300 9 995 0 0 0 12.1000 132.300 3 48 991 12.0000 132.000 TC 40 12.0300 132.329 2 41 12.0000 132.000 40 991 240 9 268
1953313N06155 1953 75 WP MM CORA 1953-11-14 09:00:00 TS 12.0066 131.766 main 663 620 PPP______PPP__ WP211953 11.9847 131.677 42 0 11.9849 131.850 9 992 0 0 12.0999 131.850 3 53 989 11.9847 131.677 TC 42 12.0006 131.866 2 43 11.9847 131.677 42 989 270 7 270
1953313N06155 1953 75 WP MM CORA 1953-11-14 12:00:00 TS 12.0167 131.400 990 tokyo main 620 580 OOO______OOO__ jtwc_wp WP211953 12.0000 131.400 45 0 12.0000 131.400 9 990 0 0 0 12.1000 131.400 3 58 988 12.0000 131.400 TC 45 12.0000 131.400 2 45 12.0000 131.400 45 988 300 8 275
1953313N06155 1953 75 WP MM CORA 1953-11-14 15:00:00 TS 12.0802 130.965 main 580 529 PPP______PPP__ WP211953 12.0775 130.973 47 0 12.0774 130.957 9 987 0 0 12.1274 130.957 3 58 986 12.0775 130.973 TC 47 12.0441 130.958 2 48 12.0775 130.973 47 986 300 9 281
1953313N06155 1953 75 WP MM CORA 1953-11-14 18:00:00 TS 12.1883 130.502 985 tokyo main 529 490 OOO______OPO__ jtwc_wp WP211953 12.2000 130.500 50 0 12.2000 130.500 9 985 0 0 0 12.2000 130.500 3 58 985 12.2000 130.500 TC 50 12.1296 130.514 2 52 12.2000 130.500 50 985 300 9 284
1953313N06155 1953 75 WP MM CORA 1953-11-14 21:00:00 TS 12.3012 130.045 main 480 446 PPP______PPP__ WP211953 12.3124 130.057 55 0 12.2974 130.022 9 982 0 0 12.2974 130.015 3 63 983 12.3124 130.057 TC 55 12.2753 130.064 2 56 12.3124 130.057 55 983 300 10 289
1953313N06155 1953 75 WP MM CORA 1953-11-15 00:00:00 TS 12.5000 129.567 980 tokyo main 446 396 OOO______OOO__ jtwc_wp WP211953 12.5000 129.600 60 0 12.5000 129.500 9 980 0 0 0 12.5000 129.500 4 68 982 12.5000 129.600 TC 60 12.5000 129.600 2 60 12.5000 129.600 60 982 300 11 299
1953313N06155 1953 75 WP MM CORA 1953-11-15 03:00:00 TS 12.8332 129.045 main 386 344 PPP______PPP__ WP211953 12.8050 129.107 65 1 12.9127 128.885 9 979 0 0 12.8550 128.943 4 72 980 12.8050 129.107 TC 65 12.8167 129.119 2 66 12.8050 129.107 65 980 270 13 306
1953313N06155 1953 75 WP MM CORA 1953-11-15 06:00:00 TS 13.2516 128.520 978 tokyo main 348 322 OOO______OPO__ jtwc_wp WP211953 13.2000 128.600 70 1 13.4000 128.300 9 978 0 0 0 13.3000 128.400 4 77 979 13.2000 128.600 TC 70 13.2098 128.623 2 72 13.2000 128.600 70 979 240 13 311
1953313N06155 1953 75 WP MM CORA 1953-11-15 09:00:00 TS 13.6849 128.040 main 318 311 PPP______PPP__ WP211953 13.6349 128.100 77 1 13.8072 127.885 9 976 0 0 13.7498 127.942 4 82 977 13.6349 128.100 TC 77 13.6479 128.115 2 78 13.6349 128.100 77 977 240 13 314
1953313N06155 1953 75 WP MM CORA 1953-11-15 12:00:00 TS 14.1333 127.567 975 tokyo main 311 298 OOO______OOO__ jtwc_wp WP211953 14.1000 127.600 85 2 14.2000 127.500 9 975 0 0 0 14.2000 127.500 5 87 976 14.1000 127.600 TC 85 14.1000 127.600 3 85 14.1000 127.600 85 975 240 13 314
1953313N06155 1953 75 WP MM CORA 1953-11-15 15:00:00 TS 14.5733 127.077 main 301 267 PPP______PPP__ WP211953 14.5573 127.107 87 2 14.6074 127.030 9 975 0 0 14.6148 127.022 5 87 973 14.5573 127.107 TC 87 14.5458 127.090 3 88 14.5573 127.107 88 973 240 13 312
1953313N06155 1953 75 WP MM CORA 1953-11-15 18:00:00 TS 14.9991 126.562 975 tokyo main 267 240 OOO______OPO__ jtwc_wp WP211953 15.0000 126.600 90 2 15.0000 126.500 9 975 0 0 0 15.0000 126.500 5 87 971 15.0000 126.600 TC 90 14.9944 126.573 3 92 15.0000 126.600 92 971 240 13 309
1953313N06155 1953 75 WP MM CORA 1953-11-15 21:00:00 TS 15.4118 126.001 main 240 229 PPP______PPP__ WP211953 15.4374 126.058 95 2 15.3726 125.893 9 967 0 0 15.3651 125.900 5 87 969 15.4374 126.058 TC 95 15.4208 126.043 3 96 15.4374 126.058 96 969 240 13 305
1953313N06155 1953 75 WP MM CORA 1953-11-16 00:00:00 TS 15.7667 125.433 960 tokyo main 233 228 OOO______OOO__ jtwc_wp WP211953 15.8000 125.500 100 3 15.7000 125.300 9 960 0 0 0 15.7000 125.300 5 87 967 15.8000 125.500 TC 100 15.8000 125.500 4 100 15.8000 125.500 100 967 240 12 300
1953313N06155 1953 75 WP MM CORA 1953-11-16 03:00:00 TS 16.0195 124.902 main 232 217 PPP______PPP__ WP211953 16.0148 124.957 95 2 15.9571 124.842 9 960 0 0 16.0148 124.785 5 92 963 16.0148 124.957 TC 95 16.1004 124.914 4 96 16.0148 124.957 95 967 240 11 295
1953313N06155 1953 75 WP MM CORA 1953-11-16 06:00:00 TS 16.2421 124.370 960 tokyo main 217 145 OOO______OPO__ jtwc_wp WP211953 16.2000 124.400 90 2 16.2000 124.400 9 960 0 0 0 16.3000 124.300 5 97 960 16.2000 124.400 TC 90 16.3527 124.319 4 92 16.2000 124.400 90 967 240 12 295
1953313N06155 1953 75 WP MM CORA 1953-11-16 09:00:00 TS 16.5202 123.793 main 145 85 PPP______PPP__ WP211953 16.4850 123.793 87 2 16.5225 123.858 9 960 0 0 16.5650 123.785 5 97 960 16.4850 123.793 TC 87 16.5786 123.739 4 88 16.4850 123.793 87 967 240 12 297
1953313N06155 1953 75 WP MM CORA 1953-11-16 12:00:00 TS 16.8000 123.233 960 tokyo main 75 21 OOO______OOO__ jtwc_wp WP211953 16.8000 123.200 85 2 16.8000 123.300 9 960 0 0 0 16.8000 123.300 5 97 960 16.8000 123.200 TC 85 16.8000 123.200 4 85 16.8000 123.200 85 968 240 12 298
1953313N06155 1953 75 WP MM CORA 1953-11-16 15:00:00 TS 17.0549 122.722 main 24 0 PPP______PPP__ WP211953 17.1149 122.662 87 2 16.9225 122.755 9 960 0 0 16.9924 122.877 5 97 960 17.1149 122.662 TC 87 17.0697 122.716 4 85 17.1149 122.662 87 968 270 10 298
1953313N06155 1953 75 WP MM CORA 1953-11-16 18:00:00 TS 17.2895 122.279 960 tokyo main 0 0 OOO______OPO__ jtwc_wp WP211953 17.4000 122.200 90 2 17.0000 122.300 9 960 0 0 0 17.2000 122.500 5 97 960 17.4000 122.200 TC 90 17.3368 122.275 4 85 17.4000 122.200 90 969 300 9 301
1953313N06155 1953 75 WP MM CORA 1953-11-16 21:00:00 TS 17.5120 121.923 main 0 0 PPP______PPP__ WP211953 17.6298 121.827 87 2 17.1122 122.035 9 960 0 0 17.4849 122.150 5 97 960 17.6298 121.827 TC 87 17.5855 121.872 4 85 17.6298 121.827 87 969 300 8 303
1953313N06155 1953 75 WP MM CORA 1953-11-17 00:00:00 TS 17.7167 121.600 960 tokyo main 0 0 OOO______OOO__ jtwc_wp WP211953 17.8000 121.500 85 2 17.3000 121.800 9 960 0 0 0 17.8000 121.800 5 97 960 17.8000 121.500 TC 85 17.8000 121.500 4 85 17.8000 121.500 85 970 300 8 301
1953313N06155 1953 75 WP MM CORA 1953-11-17 03:00:00 TS 17.9041 121.232 main 0 0 PPP______PPP__ WP211953 17.9075 121.142 82 1 17.6650 121.430 9 960 0 0 18.0924 121.415 5 87 965 17.9075 121.142 TC 82 17.9445 121.117 4 86 17.9075 121.142 82 971 270 8 297
1953313N06155 1953 75 WP MM CORA 1953-11-17 06:00:00 TS 18.0762 120.861 960 tokyo main 0 0 OOO______OPO__ jtwc_wp WP211953 18.0000 120.800 80 1 18.0000 121.000 9 960 0 0 0 18.4000 121.000 4 77 970 18.0000 120.800 TC 80 18.0574 120.767 4 87 18.0000 120.800 80 972 240 8 295
1953313N06155 1953 75 WP MM CORA 1953-11-17 09:00:00 TS 18.2311 120.488 main 10 10 PPP______PPP__ WP211953 18.1425 120.478 85 2 18.0351 120.527 9 960 0 0 18.7577 120.513 4 77 970 18.1425 120.478 TC 85 18.1665 120.458 4 88 18.1425 120.478 85 972 240 7 296
1953313N06155 1953 75 WP MM CORA 1953-11-17 12:00:00 TS 18.4000 120.167 960 tokyo main 42 42 OOO______OOO__ jtwc_wp WP211953 18.3000 120.200 90 2 18.1000 120.100 9 960 0 0 0 19.1000 120.100 4 77 970 18.3000 120.200 TC 90 18.3000 120.200 4 90 18.3000 120.200 90 973 240 7 304
1953313N06155 1953 75 WP MM CORA 1953-11-17 15:00:00 TS 18.5990 119.906 main 77 77 PPP______PPP__ WP211953 18.4275 119.970 95 2 18.4824 119.738 9 960 0 0 19.3498 119.867 4 77 970 18.4275 119.970 TC 95 18.4797 119.923 4 95 18.4275 119.970 95 972 210 6 319
1953313N06155 1953 75 WP MM CORA 1953-11-17 18:00:00 TS 18.8482 119.751 960 tokyo main 95 95 OOO______OPO__ jtwc_wp WP211953 18.6000 119.800 100 3 19.0000 119.600 9 960 0 0 0 19.6000 119.800 4 77 970 18.6000 119.800 TC 100 18.6895 119.706 4 100 18.6000 119.800 100 971 180 6 341
1953313N06155 1953 75 WP MM CORA 1953-11-17 21:00:00 TS 19.1624 119.696 main 130 130 PPP______PPP__ WP211953 18.8550 119.640 105 3 19.5302 119.832 9 960 0 0 19.9499 119.840 4 72 972 18.8550 119.640 TC 105 18.9295 119.586 4 105 18.8550 119.640 105 970 180 7 0
1953313N06155 1953 75 WP MM CORA 1953-11-18 00:00:00 TS 19.5167 119.767 960 tokyo main 145 145 OOO______OOO__ jtwc_wp WP211953 19.2000 119.600 110 3 20.0000 120.200 9 960 0 0 0 20.3000 120.000 4 68 975 19.2000 119.600 TC 110 19.2000 119.600 4 110 19.2000 119.600 110 969 180 8 16
1953313N06155 1953 75 WP MM CORA 1953-11-18 03:00:00 TS 19.9016 119.917 main 173 173 PPP______PPP__ WP211953 19.6649 119.717 115 4 20.2873 120.400 9 965 0 0 20.5875 120.212 4 68 977 19.6649 119.717 TC 115 19.5403 119.735 4 108 19.6649 119.717 115 968 180 8 28
1953313N06155 1953 75 WP MM CORA 1953-11-18 06:00:00 TS 20.2503 120.185 970 tokyo main 186 157 OOO______OPO__ jtwc_wp WP211953 20.1000 120.000 120 4 20.5000 120.600 9 970 0 0 0 20.8000 120.500 4 68 980 20.1000 120.000 TC 120 19.9015 120.008 4 107 20.1000 120.000 120 967 180 8 45
1953313N06155 1953 75 WP MM CORA 1953-11-18 09:00:00 TS 20.4994 120.545 main 157 134 PPP______PPP__ WP211953 20.3449 120.390 112 3 20.7874 120.870 9 975 0 0 20.9375 120.828 4 63 985 20.3449 120.390 TC 112 20.2369 120.403 4 106 20.3449 120.390 112 966 180 9 61
1953313N06155 1953 75 WP MM CORA 1953-11-18 12:00:00 TS 20.6667 121.000 980 tokyo main 134 129 OOO______OOO__ jtwc_wp WP211953 20.5000 120.900 105 3 21.0000 121.200 9 980 0 0 0 21.0000 121.200 3 58 990 20.5000 120.900 TC 105 20.5000 120.900 4 105 20.5000 120.900 105 965 180 10 71
1953313N06155 1953 75 WP MM CORA 1953-11-18 15:00:00 TS 20.8102 121.512 main 137 137 PPP______PPP__ WP211953 20.6873 121.462 95 2 21.0826 121.600 9 985 0 0 21.0601 121.607 3 58 990 20.6873 121.462 TC 95 20.6566 121.479 4 97 20.6873 121.462 95 966 180 10 79
1953313N06155 1953 75 WP MM CORA 1953-11-18 18:00:00 TS 20.8595 122.068 990 tokyo main 167 167 OOO______OPO__ jtwc_wp WP211953 20.8000 122.100 85 2 21.0000 122.000 9 990 0 0 0 21.0000 122.000 3 58 990 20.8000 122.100 TC 85 20.7228 122.119 4 90 20.8000 122.100 85 968 180 10 91
1953313N06155 1953 75 WP MM CORA 1953-11-18 21:00:00 TS 20.7896 122.628 main 214 214 PPP______PPP__ WP211953 20.8248 122.777 80 1 20.7525 122.391 9 992 0 0 20.7524 122.330 3 48 995 20.8248 122.777 TC 80 20.7276 122.800 4 82 20.8248 122.777 80 969 180 10 106
1953313N06155 1953 75 WP MM CORA 1953-11-19 00:00:00 TS 20.5800 123.140 995 tokyo main 259 251 OOO______OOO__ jtwc_wp WP211953 20.7000 123.500 75 1 20.4000 122.600 9 995 0 0 0 20.4000 122.600 2 38 1000 20.7000 123.500 TC 75 20.7000 123.500 4 75 20.7000 123.500 75 971 180 11 119
1953313N06155 1953 75 WP MM CORA 1953-11-19 03:00:00 TS 20.2774 123.626 main 252 237 PPP______P_P__ WP211953 20.4928 124.508 67 1 20.0275 122.384 9 999 0 0 20.0348 122.792 2 33 1002 20.4928 124.508 TC 67 4 20.4006 124.246 67 972 150 10 136
1953313N06155 1953 75 WP MM CORA 1953-11-19 06:00:00 TS 19.8588 123.871 1004 tokyo main 237 169 OOO______O_O__ jtwc_wp WP211953 20.0000 125.000 60 0 19.7000 122.200 9 1004 0 0 0 19.7000 123.000 1 29 1005 20.0000 125.000 TC 60 4 20.0000 125.000 60 974 120 10 184
1953313N06155 1953 75 WP MM CORA 1953-11-19 09:00:00 TS 19.2598 123.545 main 161 100 PPP______P____ WP211953 19.0247 124.182 55 0 19.5276 122.495 9 1006 0 0 19.4625 123.320 1 1006 19.0247 124.182 TC 55 4 14 209
1953313N06155 1953 75 WP MM CORA 1953-11-19 12:00:00 TS 18.6750 123.175 1008 tokyo main 100 84 OOO______O____ jtwc_wp WP211953 18.0000 123.000 50 0 19.4000 123.000 9 1008 0 0 0 19.3000 123.700 0 1008 18.0000 123.000 TC 50 11 204
1953313N06155 1953 75 WP MM CORA 1953-11-19 15:00:00 TS 18.3008 123.104 main 84 84 PPP______P____ WP211953 17.4242 122.427 45 0 19.1773 123.470 9 1008 0 0 19.1775 124.092 0 1008 17.4242 122.427 TC 45 5 168
1953313N06155 1953 75 WP MM CORA 1953-11-19 18:00:00 MX 18.1714 123.286 1008 tokyo main 106 106 OOO______O____ jtwc_wp WP211953 17.0000 122.000 40 0 19.0000 124.000 6 1008 0 0 0 19.1000 124.500 0 1008 17.0000 122.000 TC 40 6 104
1953313N06155 1953 75 WP MM CORA 1953-11-19 21:00:00 MX 18.1694 123.677 main 148 148 PPP______P____ WP211953 16.5256 121.524 35 0 18.9476 124.600 6 1009 0 0 19.0350 124.907 0 1009 16.5256 121.524 TC 35 11 78
1953313N06155 1953 75 WP MM CORA 1953-11-20 00:00:00 MX 18.4000 124.400 1010 tokyo main 221 221 OOO______O____ jtwc_wp WP211953 16.0000 121.000 30 -1 19.0000 125.200 6 1010 0 0 0 19.0000 125.300 0 1010 16.0000 121.000 TC 30 21 65
1953313N06155 1953 75 WP MM CORA 1953-11-20 03:00:00 MX 19.0524 125.697 main 366 366 _PP___________ WP211953 -1 19.1198 125.730 6 1010 0 0 18.9849 125.665 0 1010 TC 18 65
1953313N06155 1953 75 WP MM CORA 1953-11-20 06:00:00 MX 19.1500 126.100 1010 tokyo main 409 409 _OO___________ -1 19.3000 126.200 6 1010 0 0 0 19.0000 126.000 0 1010 8 73
1953313N06155 1953 75 WP MM CORA 1953-11-20 09:00:00 MX 19.2701 126.461 main 453 453 _PP___________ -1 19.4976 126.615 6 1012 0 0 19.0426 126.307 0 1012 7 69
1953313N06155 1953 75 WP MM CORA 1953-11-20 12:00:00 MX 19.4000 126.800 1014 tokyo main 486 _OO___________ -1 19.7000 127.000 6 1014 0 0 0 19.1000 126.600 0 1014 7 68

Digital Typhoon Data and Search

About IBTrACS Database

This database is a web-friendly format of International Best Track Archive for Climate Stewardship (IBTrACS), a global best track data archive curated by NOAA dating back to 1842.

Updated: 2021-12-01